sensor_id;sensor_type;location;lat;lon;timestamp;P1;durP1;ratioP1;P2;durP2;ratioP2
22995;SDS011;11664;49.774;8.650;2023-08-01T00:00:54;29.90;;;27.83;;
22995;SDS011;11664;49.774;8.650;2023-08-01T00:03:27;35.67;;;33.67;;
22995;SDS011;11664;49.774;8.650;2023-08-01T00:06:07;63.72;;;60.03;;
22995;SDS011;11664;49.774;8.650;2023-08-01T00:08:33;141.65;;;133.93;;
22995;SDS011;11664;49.774;8.650;2023-08-01T00:10:59;122.72;;;115.88;;
22995;SDS011;11664;49.774;8.650;2023-08-01T00:13:30;75.78;;;71.25;;
22995;SDS011;11664;49.774;8.650;2023-08-01T00:15:56;48.65;;;45.95;;
22995;SDS011;11664;49.774;8.650;2023-08-01T00:18:21;34.42;;;31.67;;
22995;SDS011;11664;49.774;8.650;2023-08-01T00:20:53;46.35;;;43.55;;
22995;SDS011;11664;49.774;8.650;2023-08-01T00:23:31;64.35;;;60.63;;
22995;SDS011;11664;49.774;8.650;2023-08-01T00:26:09;51.63;;;48.05;;
22995;SDS011;11664;49.774;8.650;2023-08-01T00:28:34;57.97;;;54.55;;
22995;SDS011;11664;49.774;8.650;2023-08-01T00:31:07;46.67;;;43.92;;
22995;SDS011;11664;49.774;8.650;2023-08-01T00:33:45;37.42;;;34.88;;
22995;SDS011;11664;49.774;8.650;2023-08-01T00:36:16;43.33;;;40.88;;
22995;SDS011;11664;49.774;8.650;2023-08-01T00:38:42;24.83;;;23.25;;
22995;SDS011;11664;49.774;8.650;2023-08-01T00:41:08;41.45;;;39.10;;
22995;SDS011;11664;49.774;8.650;2023-08-01T00:43:43;43.55;;;41.00;;
22995;SDS011;11664;49.774;8.650;2023-08-01T00:46:14;36.97;;;34.58;;
22995;SDS011;11664;49.774;8.650;2023-08-01T00:48:46;56.70;;;53.63;;
22995;SDS011;11664;49.774;8.650;2023-08-01T00:51:11;43.65;;;40.70;;
22995;SDS011;11664;49.774;8.650;2023-08-01T00:53:42;50.53;;;47.65;;
22995;SDS011;11664;49.774;8.650;2023-08-01T00:56:14;28.15;;;26.45;;
22995;SDS011;11664;49.774;8.650;2023-08-01T00:58:39;22.10;;;20.75;;
22995;SDS011;11664;49.774;8.650;2023-08-01T01:01:05;27.52;;;25.80;;
22995;SDS011;11664;49.774;8.650;2023-08-01T01:03:36;33.97;;;31.95;;
22995;SDS011;11664;49.774;8.650;2023-08-01T01:06:14;21.65;;;20.15;;
22995;SDS011;11664;49.774;8.650;2023-08-01T01:08:47;22.33;;;21.08;;
22995;SDS011;11664;49.774;8.650;2023-08-01T01:11:18;24.63;;;23.10;;
22995;SDS011;11664;49.774;8.650;2023-08-01T01:13:47;19.65;;;18.45;;
22995;SDS011;11664;49.774;8.650;2023-08-01T01:16:16;22.92;;;21.63;;
22995;SDS011;11664;49.774;8.650;2023-08-01T01:18:41;20.90;;;19.23;;
22995;SDS011;11664;49.774;8.650;2023-08-01T01:21:10;31.67;;;29.88;;
22995;SDS011;11664;49.774;8.650;2023-08-01T01:23:41;18.40;;;17.25;;
22995;SDS011;11664;49.774;8.650;2023-08-01T01:26:09;26.13;;;24.45;;
22995;SDS011;11664;49.774;8.650;2023-08-01T01:28:38;34.10;;;31.83;;
22995;SDS011;11664;49.774;8.650;2023-08-01T01:31:08;23.75;;;22.27;;
22995;SDS011;11664;49.774;8.650;2023-08-01T01:33:43;25.48;;;23.98;;
22995;SDS011;11664;49.774;8.650;2023-08-01T01:36:14;30.63;;;28.75;;
22995;SDS011;11664;49.774;8.650;2023-08-01T01:38:40;27.38;;;25.55;;
22995;SDS011;11664;49.774;8.650;2023-08-01T01:41:14;14.27;;;13.40;;
22995;SDS011;11664;49.774;8.650;2023-08-01T01:43:42;18.77;;;17.42;;
22995;SDS011;11664;49.774;8.650;2023-08-01T01:46:09;19.15;;;17.83;;
22995;SDS011;11664;49.774;8.650;2023-08-01T01:48:41;31.92;;;29.98;;
22995;SDS011;11664;49.774;8.650;2023-08-01T01:51:07;34.28;;;32.17;;
22995;SDS011;11664;49.774;8.650;2023-08-01T01:53:33;46.03;;;43.25;;
22995;SDS011;11664;49.774;8.650;2023-08-01T01:55:58;44.50;;;42.13;;
22995;SDS011;11664;49.774;8.650;2023-08-01T01:58:38;50.08;;;47.22;;
22995;SDS011;11664;49.774;8.650;2023-08-01T02:01:07;39.35;;;36.97;;
22995;SDS011;11664;49.774;8.650;2023-08-01T02:03:36;42.92;;;40.50;;
22995;SDS011;11664;49.774;8.650;2023-08-01T02:06:07;63.70;;;59.95;;
22995;SDS011;11664;49.774;8.650;2023-08-01T02:08:45;63.33;;;59.72;;
22995;SDS011;11664;49.774;8.650;2023-08-01T02:11:16;43.15;;;40.67;;
22995;SDS011;11664;49.774;8.650;2023-08-01T02:13:48;26.52;;;25.05;;
22995;SDS011;11664;49.774;8.650;2023-08-01T02:16:20;26.95;;;25.48;;
22995;SDS011;11664;49.774;8.650;2023-08-01T02:18:51;23.10;;;21.65;;
22995;SDS011;11664;49.774;8.650;2023-08-01T02:21:20;26.60;;;24.73;;
22995;SDS011;11664;49.774;8.650;2023-08-01T02:23:58;37.65;;;35.42;;
22995;SDS011;11664;49.774;8.650;2023-08-01T02:26:23;37.13;;;34.97;;
22995;SDS011;11664;49.774;8.650;2023-08-01T02:28:49;39.20;;;36.67;;
22995;SDS011;11664;49.774;8.650;2023-08-01T02:31:30;47.17;;;44.35;;
22995;SDS011;11664;49.774;8.650;2023-08-01T02:33:55;51.22;;;48.38;;
22995;SDS011;11664;49.774;8.650;2023-08-01T02:36:21;35.17;;;32.95;;
22995;SDS011;11664;49.774;8.650;2023-08-01T02:38:47;35.72;;;33.60;;
22995;SDS011;11664;49.774;8.650;2023-08-01T02:41:12;41.88;;;39.25;;
22995;SDS011;11664;49.774;8.650;2023-08-01T02:43:38;27.58;;;25.98;;
22995;SDS011;11664;49.774;8.650;2023-08-01T02:46:03;25.88;;;24.17;;
22995;SDS011;11664;49.774;8.650;2023-08-01T02:48:36;34.50;;;32.58;;
22995;SDS011;11664;49.774;8.650;2023-08-01T02:51:05;24.25;;;22.75;;
22995;SDS011;11664;49.774;8.650;2023-08-01T02:53:43;25.27;;;23.67;;
22995;SDS011;11664;49.774;8.650;2023-08-01T02:56:08;23.85;;;22.45;;
22995;SDS011;11664;49.774;8.650;2023-08-01T02:58:41;15.65;;;14.75;;
22995;SDS011;11664;49.774;8.650;2023-08-01T03:01:13;21.42;;;19.90;;
22995;SDS011;11664;49.774;8.650;2023-08-01T03:03:45;18.60;;;17.52;;
22995;SDS011;11664;49.774;8.650;2023-08-01T03:06:10;28.63;;;26.88;;
22995;SDS011;11664;49.774;8.650;2023-08-01T03:08:52;32.85;;;31.02;;
22995;SDS011;11664;49.774;8.650;2023-08-01T03:11:21;20.23;;;18.80;;
22995;SDS011;11664;49.774;8.650;2023-08-01T03:13:53;23.38;;;22.08;;
22995;SDS011;11664;49.774;8.650;2023-08-01T03:16:27;33.20;;;31.33;;
22995;SDS011;11664;49.774;8.650;2023-08-01T03:18:53;131.75;;;124.38;;
22995;SDS011;11664;49.774;8.650;2023-08-01T03:21:34;100.85;;;95.10;;
22995;SDS011;11664;49.774;8.650;2023-08-01T03:24:03;75.50;;;71.18;;
22995;SDS011;11664;49.774;8.650;2023-08-01T03:26:35;47.50;;;44.63;;
22995;SDS011;11664;49.774;8.650;2023-08-01T03:29:01;34.78;;;32.45;;
22995;SDS011;11664;49.774;8.650;2023-08-01T03:31:27;25.98;;;24.42;;
22995;SDS011;11664;49.774;8.650;2023-08-01T03:33:59;24.13;;;22.70;;
22995;SDS011;11664;49.774;8.650;2023-08-01T03:36:28;26.85;;;25.08;;
22995;SDS011;11664;49.774;8.650;2023-08-01T03:38:56;38.85;;;36.72;;
22995;SDS011;11664;49.774;8.650;2023-08-01T03:41:34;43.60;;;41.20;;
22995;SDS011;11664;49.774;8.650;2023-08-01T03:44:08;46.72;;;44.20;;
22995;SDS011;11664;49.774;8.650;2023-08-01T03:46:40;47.78;;;45.13;;
22995;SDS011;11664;49.774;8.650;2023-08-01T03:49:12;53.10;;;50.13;;
22995;SDS011;11664;49.774;8.650;2023-08-01T03:51:37;68.28;;;64.30;;
22995;SDS011;11664;49.774;8.650;2023-08-01T03:54:03;49.85;;;46.70;;
22995;SDS011;11664;49.774;8.650;2023-08-01T03:56:38;65.47;;;61.63;;
22995;SDS011;11664;49.774;8.650;2023-08-01T03:59:07;72.80;;;68.90;;
22995;SDS011;11664;49.774;8.650;2023-08-01T04:01:32;49.38;;;46.38;;
22995;SDS011;11664;49.774;8.650;2023-08-01T04:03:58;39.72;;;37.35;;
22995;SDS011;11664;49.774;8.650;2023-08-01T04:06:23;38.63;;;36.53;;
22995;SDS011;11664;49.774;8.650;2023-08-01T04:08:55;44.25;;;41.80;;
22995;SDS011;11664;49.774;8.650;2023-08-01T04:11:21;62.70;;;59.08;;
22995;SDS011;11664;49.774;8.650;2023-08-01T04:13:53;51.03;;;48.17;;
22995;SDS011;11664;49.774;8.650;2023-08-01T04:16:25;61.72;;;58.22;;
22995;SDS011;11664;49.774;8.650;2023-08-01T04:18:59;84.07;;;79.18;;
22995;SDS011;11664;49.774;8.650;2023-08-01T04:21:34;67.25;;;63.67;;
22995;SDS011;11664;49.774;8.650;2023-08-01T04:24:00;49.65;;;46.75;;
22995;SDS011;11664;49.774;8.650;2023-08-01T04:26:25;32.45;;;30.33;;
22995;SDS011;11664;49.774;8.650;2023-08-01T04:28:57;35.17;;;33.03;;
22995;SDS011;11664;49.774;8.650;2023-08-01T04:31:22;47.63;;;44.97;;
22995;SDS011;11664;49.774;8.650;2023-08-01T04:33:51;57.05;;;53.78;;
22995;SDS011;11664;49.774;8.650;2023-08-01T04:36:19;67.50;;;63.75;;
22995;SDS011;11664;49.774;8.650;2023-08-01T04:38:48;128.88;;;121.38;;
22995;SDS011;11664;49.774;8.650;2023-08-01T04:41:13;99.70;;;94.18;;
22995;SDS011;11664;49.774;8.650;2023-08-01T04:43:57;98.75;;;92.75;;
22995;SDS011;11664;49.774;8.650;2023-08-01T04:46:24;125.90;;;118.70;;
22995;SDS011;11664;49.774;8.650;2023-08-01T04:48:53;79.15;;;74.82;;
22995;SDS011;11664;49.774;8.650;2023-08-01T04:51:18;152.82;;;144.00;;
22995;SDS011;11664;49.774;8.650;2023-08-01T04:53:45;124.00;;;117.05;;
22995;SDS011;11664;49.774;8.650;2023-08-01T04:56:10;113.80;;;107.38;;
22995;SDS011;11664;49.774;8.650;2023-08-01T04:58:51;97.28;;;91.85;;
22995;SDS011;11664;49.774;8.650;2023-08-01T05:01:26;113.35;;;107.10;;
22995;SDS011;11664;49.774;8.650;2023-08-01T05:03:54;51.85;;;48.85;;
22995;SDS011;11664;49.774;8.650;2023-08-01T05:06:20;175.60;;;166.00;;
22995;SDS011;11664;49.774;8.650;2023-08-01T05:08:54;87.25;;;82.55;;
22995;SDS011;11664;49.774;8.650;2023-08-01T05:12:03;75.20;;;70.88;;
22995;SDS011;11664;49.774;8.650;2023-08-01T05:14:32;110.68;;;104.20;;
22995;SDS011;11664;49.774;8.650;2023-08-01T05:19:51;36.92;;;34.78;;
22995;SDS011;11664;49.774;8.650;2023-08-01T05:22:17;69.88;;;65.88;;
22995;SDS011;11664;49.774;8.650;2023-08-01T05:24:45;43.03;;;40.65;;
22995;SDS011;11664;49.774;8.650;2023-08-01T05:27:14;30.75;;;28.85;;
22995;SDS011;11664;49.774;8.650;2023-08-01T05:29:46;26.98;;;25.42;;
22995;SDS011;11664;49.774;8.650;2023-08-01T05:32:11;26.90;;;25.20;;
22995;SDS011;11664;49.774;8.650;2023-08-01T05:34:37;30.80;;;28.80;;
22995;SDS011;11664;49.774;8.650;2023-08-01T05:37:02;25.73;;;24.05;;
22995;SDS011;11664;49.774;8.650;2023-08-01T05:39:43;37.05;;;34.85;;
22995;SDS011;11664;49.774;8.650;2023-08-01T05:42:08;37.38;;;35.10;;
22995;SDS011;11664;49.774;8.650;2023-08-01T05:44:34;44.30;;;41.75;;
22995;SDS011;11664;49.774;8.650;2023-08-01T05:47:00;26.85;;;25.05;;
22995;SDS011;11664;49.774;8.650;2023-08-01T05:49:31;35.03;;;32.88;;
22995;SDS011;11664;49.774;8.650;2023-08-01T05:52:00;43.60;;;40.95;;
22995;SDS011;11664;49.774;8.650;2023-08-01T05:54:25;165.38;;;156.35;;
22995;SDS011;11664;49.774;8.650;2023-08-01T05:56:57;75.68;;;71.32;;
22995;SDS011;11664;49.774;8.650;2023-08-01T05:59:26;61.75;;;58.33;;
22995;SDS011;11664;49.774;8.650;2023-08-01T06:01:54;38.08;;;35.95;;
22995;SDS011;11664;49.774;8.650;2023-08-01T06:04:23;28.90;;;27.17;;
22995;SDS011;11664;49.774;8.650;2023-08-01T06:06:55;24.65;;;23.13;;
22995;SDS011;11664;49.774;8.650;2023-08-01T06:11:49;26.42;;;24.88;;
22995;SDS011;11664;49.774;8.650;2023-08-01T06:14:27;26.23;;;24.73;;
22995;SDS011;11664;49.774;8.650;2023-08-01T06:16:59;18.73;;;17.52;;
22995;SDS011;11664;49.774;8.650;2023-08-01T06:19:27;26.85;;;25.25;;
22995;SDS011;11664;49.774;8.650;2023-08-01T06:21:53;24.75;;;23.30;;
22995;SDS011;11664;49.774;8.650;2023-08-01T06:24:21;42.85;;;40.40;;
22995;SDS011;11664;49.774;8.650;2023-08-01T06:26:47;31.20;;;29.40;;
22995;SDS011;11664;49.774;8.650;2023-08-01T06:29:21;35.97;;;33.80;;
22995;SDS011;11664;49.774;8.650;2023-08-01T06:31:47;40.90;;;38.13;;
22995;SDS011;11664;49.774;8.650;2023-08-01T06:34:12;81.68;;;77.40;;
22995;SDS011;11664;49.774;8.650;2023-08-01T06:36:41;109.50;;;103.30;;
22995;SDS011;11664;49.774;8.650;2023-08-01T06:39:10;87.20;;;82.68;;
22995;SDS011;11664;49.774;8.650;2023-08-01T06:41:38;22.97;;;21.67;;
22995;SDS011;11664;49.774;8.650;2023-08-01T06:44:06;38.80;;;36.78;;
22995;SDS011;11664;49.774;8.650;2023-08-01T06:46:44;86.15;;;81.60;;
22995;SDS011;11664;49.774;8.650;2023-08-01T06:49:22;65.55;;;62.03;;
22995;SDS011;11664;49.774;8.650;2023-08-01T06:51:53;66.00;;;62.63;;
22995;SDS011;11664;49.774;8.650;2023-08-01T06:54:19;51.67;;;48.85;;
22995;SDS011;11664;49.774;8.650;2023-08-01T06:56:53;60.83;;;57.63;;
22995;SDS011;11664;49.774;8.650;2023-08-01T07:02:14;77.07;;;72.95;;
22995;SDS011;11664;49.774;8.650;2023-08-01T07:04:40;39.65;;;37.50;;
22995;SDS011;11664;49.774;8.650;2023-08-01T07:07:09;21.85;;;20.58;;
22995;SDS011;11664;49.774;8.650;2023-08-01T07:09:47;24.05;;;22.60;;
22995;SDS011;11664;49.774;8.650;2023-08-01T07:12:18;25.98;;;24.48;;
22995;SDS011;11664;49.774;8.650;2023-08-01T07:14:43;47.60;;;45.05;;
22995;SDS011;11664;49.774;8.650;2023-08-01T07:17:09;49.22;;;46.58;;
22995;SDS011;11664;49.774;8.650;2023-08-01T07:19:34;31.90;;;30.23;;
22995;SDS011;11664;49.774;8.650;2023-08-01T07:22:00;59.63;;;56.38;;
22995;SDS011;11664;49.774;8.650;2023-08-01T07:24:44;22.63;;;21.33;;
22995;SDS011;11664;49.774;8.650;2023-08-01T07:27:19;16.00;;;15.00;;
22995;SDS011;11664;49.774;8.650;2023-08-01T07:29:50;14.77;;;13.82;;
22995;SDS011;11664;49.774;8.650;2023-08-01T07:32:16;23.48;;;21.92;;
22995;SDS011;11664;49.774;8.650;2023-08-01T07:34:41;20.98;;;19.63;;
22995;SDS011;11664;49.774;8.650;2023-08-01T07:37:13;18.40;;;17.25;;
22995;SDS011;11664;49.774;8.650;2023-08-01T07:39:41;24.88;;;23.42;;
22995;SDS011;11664;49.774;8.650;2023-08-01T07:42:28;20.45;;;19.05;;
22995;SDS011;11664;49.774;8.650;2023-08-01T07:44:54;13.77;;;12.88;;
22995;SDS011;11664;49.774;8.650;2023-08-01T07:47:23;19.23;;;18.08;;
22995;SDS011;11664;49.774;8.650;2023-08-01T07:49:49;48.28;;;45.13;;
22995;SDS011;11664;49.774;8.650;2023-08-01T07:52:31;23.80;;;22.52;;
22995;SDS011;11664;49.774;8.650;2023-08-01T07:54:56;26.25;;;24.83;;
22995;SDS011;11664;49.774;8.650;2023-08-01T07:57:23;25.70;;;24.23;;
22995;SDS011;11664;49.774;8.650;2023-08-01T07:59:55;32.97;;;31.13;;
22995;SDS011;11664;49.774;8.650;2023-08-01T08:02:23;23.70;;;22.38;;
22995;SDS011;11664;49.774;8.650;2023-08-01T08:04:55;11.82;;;11.00;;
22995;SDS011;11664;49.774;8.650;2023-08-01T08:07:23;11.27;;;10.48;;
22995;SDS011;11664;49.774;8.650;2023-08-01T08:09:58;11.45;;;10.48;;
22995;SDS011;11664;49.774;8.650;2023-08-01T08:12:30;10.43;;;9.73;;
22995;SDS011;11664;49.774;8.650;2023-08-01T08:15:01;15.25;;;13.98;;
22995;SDS011;11664;49.774;8.650;2023-08-01T08:17:27;13.43;;;12.43;;
22995;SDS011;11664;49.774;8.650;2023-08-01T08:19:55;20.23;;;19.05;;
22995;SDS011;11664;49.774;8.650;2023-08-01T08:22:21;16.05;;;15.07;;
22995;SDS011;11664;49.774;8.650;2023-08-01T08:24:52;10.85;;;10.02;;
22995;SDS011;11664;49.774;8.650;2023-08-01T08:27:21;9.43;;;8.82;;
22995;SDS011;11664;49.774;8.650;2023-08-01T08:29:53;8.82;;;8.23;;
22995;SDS011;11664;49.774;8.650;2023-08-01T08:32:24;11.00;;;10.30;;
22995;SDS011;11664;49.774;8.650;2023-08-01T08:34:50;7.85;;;7.30;;
22995;SDS011;11664;49.774;8.650;2023-08-01T08:37:15;11.23;;;10.60;;
22995;SDS011;11664;49.774;8.650;2023-08-01T08:39:47;8.43;;;7.95;;
22995;SDS011;11664;49.774;8.650;2023-08-01T08:42:12;7.30;;;6.90;;
22995;SDS011;11664;49.774;8.650;2023-08-01T08:44:54;7.75;;;7.25;;
22995;SDS011;11664;49.774;8.650;2023-08-01T08:47:22;16.02;;;15.15;;
22995;SDS011;11664;49.774;8.650;2023-08-01T08:49:54;10.55;;;9.95;;
22995;SDS011;11664;49.774;8.650;2023-08-01T08:52:22;7.00;;;6.60;;
22995;SDS011;11664;49.774;8.650;2023-08-01T08:54:51;6.85;;;6.45;;
22995;SDS011;11664;49.774;8.650;2023-08-01T08:57:24;5.28;;;4.88;;
22995;SDS011;11664;49.774;8.650;2023-08-01T08:59:50;5.60;;;5.30;;
22995;SDS011;11664;49.774;8.650;2023-08-01T09:02:17;4.68;;;4.40;;
22995;SDS011;11664;49.774;8.650;2023-08-01T09:04:43;5.47;;;5.07;;
22995;SDS011;11664;49.774;8.650;2023-08-01T09:07:12;4.60;;;4.30;;
22995;SDS011;11664;49.774;8.650;2023-08-01T09:09:41;4.57;;;4.38;;
22995;SDS011;11664;49.774;8.650;2023-08-01T09:12:13;5.43;;;5.13;;
22995;SDS011;11664;49.774;8.650;2023-08-01T09:14:45;5.88;;;5.57;;
22995;SDS011;11664;49.774;8.650;2023-08-01T09:17:10;5.38;;;5.07;;
22995;SDS011;11664;49.774;8.650;2023-08-01T09:19:44;6.97;;;6.63;;
22995;SDS011;11664;49.774;8.650;2023-08-01T09:22:10;8.13;;;7.72;;
22995;SDS011;11664;49.774;8.650;2023-08-01T09:24:52;5.93;;;5.63;;
22995;SDS011;11664;49.774;8.650;2023-08-01T09:27:20;5.75;;;5.40;;
22995;SDS011;11664;49.774;8.650;2023-08-01T09:29:47;5.25;;;4.95;;
22995;SDS011;11664;49.774;8.650;2023-08-01T09:32:13;5.47;;;5.18;;
22995;SDS011;11664;49.774;8.650;2023-08-01T09:34:40;5.82;;;5.53;;
22995;SDS011;11664;49.774;8.650;2023-08-01T09:37:09;7.10;;;6.70;;
22995;SDS011;11664;49.774;8.650;2023-08-01T09:39:38;8.10;;;7.65;;
22995;SDS011;11664;49.774;8.650;2023-08-01T09:42:12;8.43;;;8.02;;
22995;SDS011;11664;49.774;8.650;2023-08-01T09:44:38;7.47;;;7.07;;
22995;SDS011;11664;49.774;8.650;2023-08-01T09:47:09;5.95;;;5.65;;
22995;SDS011;11664;49.774;8.650;2023-08-01T09:49:48;5.80;;;5.50;;
22995;SDS011;11664;49.774;8.650;2023-08-01T09:52:29;6.07;;;5.78;;
22995;SDS011;11664;49.774;8.650;2023-08-01T09:55:01;6.82;;;6.43;;
22995;SDS011;11664;49.774;8.650;2023-08-01T09:57:28;6.82;;;6.35;;
22995;SDS011;11664;49.774;8.650;2023-08-01T09:59:55;5.13;;;4.93;;
22995;SDS011;11664;49.774;8.650;2023-08-01T10:02:22;4.78;;;4.50;;
22995;SDS011;11664;49.774;8.650;2023-08-01T10:04:53;4.78;;;4.57;;
22995;SDS011;11664;49.774;8.650;2023-08-01T10:07:23;5.43;;;5.10;;
22995;SDS011;11664;49.774;8.650;2023-08-01T10:09:51;4.32;;;4.13;;
22995;SDS011;11664;49.774;8.650;2023-08-01T10:12:51;6.05;;;5.75;;
22995;SDS011;11664;49.774;8.650;2023-08-01T10:15:25;4.30;;;4.10;;
22995;SDS011;11664;49.774;8.650;2023-08-01T10:20:35;4.90;;;4.60;;
22995;SDS011;11664;49.774;8.650;2023-08-01T10:23:02;5.68;;;5.38;;
22995;SDS011;11664;49.774;8.650;2023-08-01T10:25:29;5.50;;;5.22;;
22995;SDS011;11664;49.774;8.650;2023-08-01T10:28:07;6.22;;;5.93;;
22995;SDS011;11664;49.774;8.650;2023-08-01T10:30:36;6.10;;;5.80;;
22995;SDS011;11664;49.774;8.650;2023-08-01T10:33:01;5.70;;;5.40;;
22995;SDS011;11664;49.774;8.650;2023-08-01T10:35:36;5.43;;;4.93;;
22995;SDS011;11664;49.774;8.650;2023-08-01T10:38:10;4.97;;;4.75;;
22995;SDS011;11664;49.774;8.650;2023-08-01T10:40:37;4.40;;;4.13;;
22995;SDS011;11664;49.774;8.650;2023-08-01T10:43:18;6.07;;;5.78;;
22995;SDS011;11664;49.774;8.650;2023-08-01T10:48:30;8.45;;;7.95;;
22995;SDS011;11664;49.774;8.650;2023-08-01T10:51:14;10.38;;;9.77;;
22995;SDS011;11664;49.774;8.650;2023-08-01T10:53:40;9.52;;;8.90;;
22995;SDS011;11664;49.774;8.650;2023-08-01T10:56:18;7.75;;;7.35;;
22995;SDS011;11664;49.774;8.650;2023-08-01T10:58:47;7.65;;;6.97;;
22995;SDS011;11664;49.774;8.650;2023-08-01T11:01:13;6.20;;;5.90;;
22995;SDS011;11664;49.774;8.650;2023-08-01T11:03:47;8.10;;;7.70;;
22995;SDS011;11664;49.774;8.650;2023-08-01T11:06:12;16.92;;;16.02;;
22995;SDS011;11664;49.774;8.650;2023-08-01T11:08:41;9.48;;;9.00;;
22995;SDS011;11664;49.774;8.650;2023-08-01T11:11:10;7.50;;;7.07;;
22995;SDS011;11664;49.774;8.650;2023-08-01T11:13:41;7.68;;;7.28;;
22995;SDS011;11664;49.774;8.650;2023-08-01T11:16:14;5.35;;;5.05;;
22995;SDS011;11664;49.774;8.650;2023-08-01T11:18:43;5.80;;;5.50;;
22995;SDS011;11664;49.774;8.650;2023-08-01T11:21:09;5.35;;;4.95;;
22995;SDS011;11664;49.774;8.650;2023-08-01T11:23:34;5.32;;;5.03;;
22995;SDS011;11664;49.774;8.650;2023-08-01T11:26:01;4.72;;;4.53;;
22995;SDS011;11664;49.774;8.650;2023-08-01T11:28:32;5.20;;;4.88;;
22995;SDS011;11664;49.774;8.650;2023-08-01T11:30:57;5.18;;;4.97;;
22995;SDS011;11664;49.774;8.650;2023-08-01T11:33:23;6.55;;;6.15;;
22995;SDS011;11664;49.774;8.650;2023-08-01T11:35:55;8.10;;;7.50;;
22995;SDS011;11664;49.774;8.650;2023-08-01T11:38:31;5.80;;;5.50;;
22995;SDS011;11664;49.774;8.650;2023-08-01T11:40:59;6.70;;;6.30;;
22995;SDS011;11664;49.774;8.650;2023-08-01T11:43:26;5.88;;;5.57;;
22995;SDS011;11664;49.774;8.650;2023-08-01T11:45:58;5.72;;;5.43;;
22995;SDS011;11664;49.774;8.650;2023-08-01T11:48:30;5.93;;;5.43;;
22995;SDS011;11664;49.774;8.650;2023-08-01T11:50:59;5.68;;;5.38;;
22995;SDS011;11664;49.774;8.650;2023-08-01T11:53:25;5.38;;;5.05;;
22995;SDS011;11664;49.774;8.650;2023-08-01T11:56:07;7.25;;;6.75;;
22995;SDS011;11664;49.774;8.650;2023-08-01T11:58:34;7.73;;;7.30;;
22995;SDS011;11664;49.774;8.650;2023-08-01T12:01:09;10.43;;;9.82;;
22995;SDS011;11664;49.774;8.650;2023-08-01T12:03:45;4.93;;;4.63;;
22995;SDS011;11664;49.774;8.650;2023-08-01T12:06:12;5.00;;;4.70;;
22995;SDS011;11664;49.774;8.650;2023-08-01T12:08:39;4.43;;;3.78;;
22995;SDS011;11664;49.774;8.650;2023-08-01T12:11:16;4.18;;;3.78;;
22995;SDS011;11664;49.774;8.650;2023-08-01T12:13:43;5.15;;;4.85;;
22995;SDS011;11664;49.774;8.650;2023-08-01T12:16:09;4.30;;;4.00;;
22995;SDS011;11664;49.774;8.650;2023-08-01T12:18:44;4.20;;;4.00;;
22995;SDS011;11664;49.774;8.650;2023-08-01T12:21:09;3.78;;;3.47;;
22995;SDS011;11664;49.774;8.650;2023-08-01T12:23:35;4.43;;;4.13;;
22995;SDS011;11664;49.774;8.650;2023-08-01T12:26:01;8.43;;;7.88;;
22995;SDS011;11664;49.774;8.650;2023-08-01T12:28:26;8.48;;;7.90;;
22995;SDS011;11664;49.774;8.650;2023-08-01T12:30:52;11.80;;;11.13;;
22995;SDS011;11664;49.774;8.650;2023-08-01T12:33:18;5.40;;;5.10;;
22995;SDS011;11664;49.774;8.650;2023-08-01T12:35:50;4.68;;;4.38;;
22995;SDS011;11664;49.774;8.650;2023-08-01T12:38:15;3.88;;;3.67;;
22995;SDS011;11664;49.774;8.650;2023-08-01T12:40:47;3.58;;;3.28;;
22995;SDS011;11664;49.774;8.650;2023-08-01T12:43:19;4.88;;;4.57;;
22995;SDS011;11664;49.774;8.650;2023-08-01T12:45:53;3.22;;;3.10;;
22995;SDS011;11664;49.774;8.650;2023-08-01T12:48:20;4.05;;;3.80;;
22995;SDS011;11664;49.774;8.650;2023-08-01T12:50:53;3.85;;;3.65;;
22995;SDS011;11664;49.774;8.650;2023-08-01T12:53:25;5.38;;;5.00;;
22995;SDS011;11664;49.774;8.650;2023-08-01T12:58:28;4.40;;;3.63;;
22995;SDS011;11664;49.774;8.650;2023-08-01T13:00:57;3.90;;;3.55;;
22995;SDS011;11664;49.774;8.650;2023-08-01T13:03:22;3.95;;;3.67;;
22995;SDS011;11664;49.774;8.650;2023-08-01T13:05:54;6.70;;;6.40;;
22995;SDS011;11664;49.774;8.650;2023-08-01T13:08:21;4.35;;;4.15;;
22995;SDS011;11664;49.774;8.650;2023-08-01T13:10:50;6.80;;;6.40;;
22995;SDS011;11664;49.774;8.650;2023-08-01T13:13:22;10.40;;;9.85;;
22995;SDS011;11664;49.774;8.650;2023-08-01T13:15:48;5.90;;;5.47;;
22995;SDS011;11664;49.774;8.650;2023-08-01T13:18:17;5.82;;;5.53;;
22995;SDS011;11664;49.774;8.650;2023-08-01T13:20:56;7.03;;;6.57;;
22995;SDS011;11664;49.774;8.650;2023-08-01T13:23:22;8.40;;;8.00;;
22995;SDS011;11664;49.774;8.650;2023-08-01T13:25:48;9.07;;;8.57;;
22995;SDS011;11664;49.774;8.650;2023-08-01T13:28:14;5.38;;;4.97;;
22995;SDS011;11664;49.774;8.650;2023-08-01T13:30:43;4.18;;;3.97;;
22995;SDS011;11664;49.774;8.650;2023-08-01T13:33:11;3.72;;;3.53;;
22995;SDS011;11664;49.774;8.650;2023-08-01T13:35:43;5.20;;;4.90;;
22995;SDS011;11664;49.774;8.650;2023-08-01T13:40:53;9.30;;;8.82;;
22995;SDS011;11664;49.774;8.650;2023-08-01T13:43:24;6.47;;;6.07;;
22995;SDS011;11664;49.774;8.650;2023-08-01T13:45:50;11.85;;;11.18;;
22995;SDS011;11664;49.774;8.650;2023-08-01T13:48:15;7.80;;;7.40;;
22995;SDS011;11664;49.774;8.650;2023-08-01T13:50:44;7.50;;;6.88;;
22995;SDS011;11664;49.774;8.650;2023-08-01T13:53:09;6.78;;;6.38;;
22995;SDS011;11664;49.774;8.650;2023-08-01T13:55:38;8.10;;;7.70;;
22995;SDS011;11664;49.774;8.650;2023-08-01T13:58:04;5.47;;;5.18;;
22995;SDS011;11664;49.774;8.650;2023-08-01T14:00:33;4.15;;;3.85;;
22995;SDS011;11664;49.774;8.650;2023-08-01T14:03:01;5.68;;;5.28;;
22995;SDS011;11664;49.774;8.650;2023-08-01T14:05:30;5.07;;;4.78;;
22995;SDS011;11664;49.774;8.650;2023-08-01T14:07:59;4.68;;;4.40;;
22995;SDS011;11664;49.774;8.650;2023-08-01T14:10:26;4.57;;;4.18;;
22995;SDS011;11664;49.774;8.650;2023-08-01T14:12:52;6.18;;;5.65;;
22995;SDS011;11664;49.774;8.650;2023-08-01T14:15:27;6.95;;;6.55;;
22995;SDS011;11664;49.774;8.650;2023-08-01T14:17:56;11.00;;;10.40;;
22995;SDS011;11664;49.774;8.650;2023-08-01T14:20:34;9.38;;;8.88;;
22995;SDS011;11664;49.774;8.650;2023-08-01T14:23:03;4.80;;;4.38;;
22995;SDS011;11664;49.774;8.650;2023-08-01T14:25:31;5.30;;;5.00;;
22995;SDS011;11664;49.774;8.650;2023-08-01T14:28:06;5.30;;;4.43;;
22995;SDS011;11664;49.774;8.650;2023-08-01T14:30:34;4.00;;;3.70;;
22995;SDS011;11664;49.774;8.650;2023-08-01T14:33:09;4.35;;;4.05;;
22995;SDS011;11664;49.774;8.650;2023-08-01T14:35:43;4.00;;;3.80;;
22995;SDS011;11664;49.774;8.650;2023-08-01T14:38:09;4.53;;;3.83;;
22995;SDS011;11664;49.774;8.650;2023-08-01T14:40:35;5.85;;;5.55;;
22995;SDS011;11664;49.774;8.650;2023-08-01T14:43:01;5.65;;;5.35;;
22995;SDS011;11664;49.774;8.650;2023-08-01T14:45:27;8.55;;;8.13;;
22995;SDS011;11664;49.774;8.650;2023-08-01T14:48:01;8.82;;;8.32;;
22995;SDS011;11664;49.774;8.650;2023-08-01T14:50:30;7.15;;;6.55;;
22995;SDS011;11664;49.774;8.650;2023-08-01T14:52:55;5.75;;;5.43;;
22995;SDS011;11664;49.774;8.650;2023-08-01T14:55:21;7.47;;;7.00;;
22995;SDS011;11664;49.774;8.650;2023-08-01T14:57:47;12.07;;;11.13;;
22995;SDS011;11664;49.774;8.650;2023-08-01T15:00:20;7.70;;;7.25;;
22995;SDS011;11664;49.774;8.650;2023-08-01T15:02:49;13.23;;;12.40;;
22995;SDS011;11664;49.774;8.650;2023-08-01T15:05:15;7.30;;;6.90;;